createdAt,value
2018-06-19T00:00:07.323Z,94.5
2018-06-19T00:01:08.939Z,94.5
2018-06-19T00:02:10.557Z,94.5
2018-06-19T00:03:12.174Z,94.6
2018-06-19T00:04:13.790Z,94.9
2018-06-19T00:05:15.405Z,94.9
2018-06-19T00:06:17.020Z,94.7
2018-06-19T00:07:18.637Z,94.6
2018-06-19T00:08:20.250Z,94.5
2018-06-19T00:09:21.867Z,94.4
2018-06-19T00:10:23.486Z,95.0
2018-06-19T00:11:25.099Z,95.0
2018-06-19T00:12:26.716Z,95.9
2018-06-19T00:13:28.327Z,95.2
2018-06-19T00:14:29.949Z,95.0
2018-06-19T00:15:31.558Z,94.5
2018-06-19T00:16:33.170Z,95.5
2018-06-19T00:17:34.791Z,95.5
2018-06-19T00:18:36.404Z,94.9
2018-06-19T00:19:38.017Z,95.6
2018-06-19T00:20:39.635Z,95.4
2018-06-19T00:21:41.252Z,95.6
2018-06-19T00:22:43.518Z,95.3
2018-06-19T00:23:45.133Z,95.6
2018-06-19T00:24:46.753Z,95.4
2018-06-19T00:25:48.361Z,95.6
2018-06-19T00:26:49.980Z,95.4
2018-06-19T00:27:51.594Z,95.1
2018-06-19T00:28:53.208Z,95.4
2018-06-19T00:29:54.821Z,95.6
2018-06-19T00:30:56.441Z,95.2
2018-06-19T00:31:58.056Z,95.4
2018-06-19T00:32:59.670Z,95.1
2018-06-19T00:34:01.289Z,95.6
2018-06-19T00:35:02.896Z,95.6
2018-06-19T00:36:04.511Z,95.5
2018-06-19T00:37:06.129Z,95.6
2018-06-19T00:38:07.745Z,95.8
2018-06-19T00:39:09.365Z,96.1
2018-06-19T00:40:10.980Z,95.8
2018-06-19T00:41:12.595Z,95.6
2018-06-19T00:42:14.206Z,96.5
2018-06-19T00:43:15.821Z,95.6
2018-06-19T00:44:17.440Z,95.8
2018-06-19T00:45:19.052Z,95.8
2018-06-19T00:46:20.665Z,96.6
2018-06-19T00:47:22.282Z,96.4
2018-06-19T00:48:23.894Z,96.5
2018-06-19T00:49:25.507Z,96.4
2018-06-19T00:50:27.122Z,96.1
2018-06-19T00:51:28.734Z,96.6
2018-06-19T00:52:30.358Z,96.8
2018-06-19T00:53:31.973Z,96.8
2018-06-19T00:54:33.590Z,96.7
2018-06-19T00:55:35.201Z,96.4
2018-06-19T00:56:36.876Z,97.2
2018-06-19T00:57:38.427Z,97.1
2018-06-19T00:58:40.042Z,97.1
2018-06-19T00:59:41.658Z,96.7
2018-06-19T01:00:43.271Z,97.2
2018-06-19T01:01:44.891Z,96.9
2018-06-19T01:02:46.504Z,96.8
2018-06-19T01:03:48.116Z,96.7
2018-06-19T01:04:49.732Z,97.6
2018-06-19T01:05:51.344Z,97.7
2018-06-19T01:06:52.956Z,97.6
2018-06-19T01:07:54.575Z,97.0
2018-06-19T01:08:56.189Z,97.8
2018-06-19T01:09:57.806Z,97.8
2018-06-19T01:10:59.423Z,98.0
2018-06-19T01:12:01.034Z,98.1
2018-06-19T01:13:02.646Z,97.7
2018-06-19T01:14:04.263Z,98.3
2018-06-19T01:15:05.877Z,98.1
2018-06-19T01:16:07.489Z,98.0
2018-06-19T01:17:09.111Z,97.9
2018-06-19T01:18:10.718Z,98.4
2018-06-19T01:19:12.331Z,98.0
2018-06-19T01:20:13.949Z,98.2
2018-06-19T01:21:15.557Z,97.7
2018-06-19T01:22:17.179Z,98.6
2018-06-19T01:23:18.789Z,98.3
2018-06-19T01:24:20.398Z,98.0
2018-06-19T01:25:22.012Z,97.7
2018-06-19T01:26:23.623Z,97.7
2018-06-19T01:27:25.241Z,98.1
2018-06-19T01:28:26.852Z,97.2
2018-06-19T01:29:28.473Z,97.9
2018-06-19T01:30:30.083Z,97.2
2018-06-19T01:31:31.695Z,97.7
2018-06-19T01:32:33.308Z,97.8
2018-06-19T01:33:34.926Z,97.4
2018-06-19T01:34:36.538Z,98.1
2018-06-19T01:35:38.154Z,97.9
2018-06-19T01:36:39.770Z,97.5
2018-06-19T01:37:41.381Z,98.0
2018-06-19T01:38:42.999Z,97.7
2018-06-19T01:39:44.618Z,97.9
2018-06-19T01:40:46.229Z,98.0
2018-06-19T01:41:47.838Z,97.6
2018-06-19T01:42:49.458Z,98.1
2018-06-19T01:43:51.067Z,98.5
2018-06-19T01:44:52.687Z,97.9
2018-06-19T01:45:54.298Z,98.3
2018-06-19T01:46:55.910Z,97.8
2018-06-19T01:47:57.530Z,98.0
2018-06-19T01:48:59.143Z,97.7
2018-06-19T01:50:00.756Z,98.3
2018-06-19T01:51:02.376Z,98.3
2018-06-19T01:52:03.983Z,98.7
2018-06-19T01:53:05.598Z,97.7
2018-06-19T01:54:07.209Z,98.6
2018-06-19T01:55:08.821Z,98.2
2018-06-19T01:56:10.441Z,97.3
2018-06-19T01:57:12.056Z,97.4
2018-06-19T01:58:13.670Z,98.5
2018-06-19T01:59:15.282Z,97.5
2018-06-19T02:00:16.899Z,97.7
2018-06-19T02:01:18.508Z,97.5
2018-06-19T02:02:20.124Z,98.0
2018-06-19T02:03:21.735Z,98.0
2018-06-19T02:04:23.347Z,98.0
2018-06-19T02:05:24.961Z,98.0
2018-06-19T02:06:26.570Z,97.9
2018-06-19T02:07:28.189Z,97.8
2018-06-19T02:08:29.803Z,97.6
2018-06-19T02:09:31.415Z,98.0
2018-06-19T02:10:33.036Z,97.6
2018-06-19T02:11:34.649Z,97.9
2018-06-19T02:12:36.263Z,97.5
2018-06-19T02:13:37.882Z,97.9
2018-06-19T02:14:39.493Z,97.8
2018-06-19T02:15:41.113Z,98.4
2018-06-19T02:16:42.723Z,98.4
2018-06-19T02:17:44.343Z,98.0
2018-06-19T02:18:45.954Z,98.2
2018-06-19T02:19:47.577Z,98.0
2018-06-19T02:20:49.195Z,98.0
2018-06-19T02:21:50.804Z,98.0
2018-06-19T02:22:52.424Z,98.2
2018-06-19T02:23:54.033Z,97.9
2018-06-19T02:24:55.649Z,97.6
2018-06-19T02:25:57.259Z,97.9
2018-06-19T02:26:58.874Z,97.3
2018-06-19T02:28:00.491Z,97.6
2018-06-19T02:29:02.106Z,97.3
2018-06-19T02:30:03.719Z,97.2
2018-06-19T02:31:05.334Z,97.7
2018-06-19T02:32:06.950Z,97.6
2018-06-19T02:33:08.563Z,97.3
2018-06-19T02:34:10.179Z,97.3
2018-06-19T02:35:11.796Z,97.4
2018-06-19T02:36:13.401Z,97.3
2018-06-19T02:37:15.011Z,97.2
2018-06-19T02:38:16.633Z,97.3
2018-06-19T02:39:18.243Z,96.8
2018-06-19T02:40:19.867Z,96.7
2018-06-19T02:41:21.476Z,96.9
2018-06-19T02:42:23.095Z,96.7
2018-06-19T02:43:24.701Z,96.7
2018-06-19T02:44:26.323Z,96.9
2018-06-19T02:45:27.933Z,96.1
2018-06-19T02:46:29.545Z,96.5
2018-06-19T02:47:31.165Z,96.7
2018-06-19T02:48:32.777Z,97.1
2018-06-19T02:49:34.387Z,97.0
2018-06-19T02:50:36.002Z,96.9
2018-06-19T02:51:37.620Z,97.0
2018-06-19T02:52:39.236Z,96.5
2018-06-19T02:53:40.849Z,96.8
2018-06-19T02:54:42.480Z,96.9
2018-06-19T02:55:44.099Z,96.9
2018-06-19T02:56:45.710Z,96.3
2018-06-19T02:57:47.325Z,97.0
2018-06-19T02:58:48.943Z,96.4
2018-06-19T02:59:50.559Z,96.3
2018-06-19T03:00:52.680Z,97.1
2018-06-19T03:01:54.319Z,96.9
2018-06-19T03:02:55.919Z,96.4
2018-06-19T03:03:57.532Z,96.3
2018-06-19T03:04:59.144Z,95.8
2018-06-19T03:06:00.765Z,96.2
2018-06-19T03:07:02.375Z,95.6
2018-06-19T03:08:03.995Z,96.0
2018-06-19T03:09:05.615Z,96.5
2018-06-19T03:10:07.227Z,96.4
2018-06-19T03:11:08.841Z,96.3
2018-06-19T03:12:10.459Z,95.8
2018-06-19T03:13:12.068Z,96.5
2018-06-19T03:14:13.682Z,96.2
2018-06-19T03:15:15.303Z,96.0
2018-06-19T03:16:16.919Z,96.0
2018-06-19T03:17:18.541Z,96.1
2018-06-19T03:18:20.160Z,95.8
2018-06-19T03:19:21.775Z,95.9
2018-06-19T03:20:23.390Z,95.9
2018-06-19T03:21:25.016Z,95.5
2018-06-19T03:22:26.627Z,95.9
2018-06-19T03:23:28.245Z,95.8
2018-06-19T03:24:29.863Z,95.5
2018-06-19T03:25:31.488Z,95.7
2018-06-19T03:26:33.106Z,96.0
2018-06-19T03:27:34.717Z,96.2
2018-06-19T03:28:36.335Z,95.8
2018-06-19T03:29:37.956Z,95.9
2018-06-19T03:30:39.577Z,95.7
2018-06-19T03:31:41.191Z,96.5
2018-06-19T03:32:42.810Z,95.5
2018-06-19T03:33:44.427Z,95.5
2018-06-19T03:34:46.040Z,96.1
2018-06-19T03:35:47.664Z,95.6
2018-06-19T03:36:49.276Z,96.1
2018-06-19T03:37:50.899Z,95.6
2018-06-19T03:38:52.517Z,95.4
2018-06-19T03:39:54.136Z,95.6
2018-06-19T03:40:55.757Z,95.4
2018-06-19T03:41:57.369Z,95.6
2018-06-19T03:42:58.989Z,95.5
2018-06-19T03:44:00.604Z,96.3
2018-06-19T03:45:02.228Z,95.9
2018-06-19T03:46:03.843Z,95.9
2018-06-19T03:47:05.461Z,96.0
2018-06-19T03:48:07.074Z,95.6
2018-06-19T03:49:08.692Z,96.5
2018-06-19T03:50:10.314Z,95.6
2018-06-19T03:51:11.929Z,95.4
2018-06-19T03:52:13.551Z,95.8
2018-06-19T03:53:15.168Z,95.4
2018-06-19T03:54:17.181Z,95.6
2018-06-19T03:55:19.007Z,95.7
2018-06-19T03:56:20.924Z,95.9
2018-06-19T03:57:22.895Z,96.1
2018-06-19T03:58:24.730Z,96.2
2018-06-19T03:59:26.698Z,95.4
2018-06-19T04:00:28.331Z,96.0
2018-06-19T04:01:29.944Z,95.5
2018-06-19T04:02:31.563Z,95.5
2018-06-19T04:03:33.178Z,96.2
2018-06-19T04:04:34.804Z,95.4
2018-06-19T04:05:36.421Z,95.8
2018-06-19T04:06:38.036Z,95.9
2018-06-19T04:07:39.661Z,96.1
2018-06-19T04:08:41.272Z,95.7
2018-06-19T04:09:42.892Z,96.3
2018-06-19T04:10:44.514Z,95.8
2018-06-19T04:11:46.130Z,96.0
2018-06-19T04:12:47.749Z,96.0
2018-06-19T04:13:49.367Z,95.8
2018-06-19T04:14:50.987Z,95.9
2018-06-19T04:15:52.602Z,96.2
2018-06-19T04:16:54.221Z,95.7
2018-06-19T04:17:55.839Z,95.9
2018-06-19T04:18:57.455Z,96.0
2018-06-19T04:19:59.069Z,95.8
2018-06-19T04:21:00.695Z,96.2
2018-06-19T04:22:02.315Z,95.7
2018-06-19T04:23:03.936Z,95.6
2018-06-19T04:24:05.562Z,95.8
2018-06-19T04:25:07.175Z,96.2
2018-06-19T04:26:08.797Z,96.4
2018-06-19T04:27:10.412Z,95.9
2018-06-19T04:28:12.035Z,96.4
2018-06-19T04:29:13.652Z,96.0
2018-06-19T04:30:15.274Z,96.4
2018-06-19T04:31:16.885Z,96.4
2018-06-19T04:32:18.500Z,96.0
2018-06-19T04:33:20.127Z,96.0
2018-06-19T04:34:21.735Z,95.9
2018-06-19T04:35:23.358Z,95.7
2018-06-19T04:36:24.981Z,96.5
2018-06-19T04:37:26.595Z,96.3
2018-06-19T04:38:28.214Z,96.9
2018-06-19T04:39:29.831Z,96.7
2018-06-19T04:40:31.445Z,96.0
2018-06-19T04:41:33.072Z,96.4
2018-06-19T04:42:34.693Z,96.2
2018-06-19T04:43:36.313Z,96.4
2018-06-19T04:44:37.934Z,96.0
2018-06-19T04:45:39.550Z,96.5
2018-06-19T04:46:41.166Z,96.2
2018-06-19T04:47:42.792Z,96.2
2018-06-19T04:48:44.408Z,96.2
2018-06-19T04:49:46.088Z,96.4
2018-06-19T04:50:47.654Z,96.6
2018-06-19T04:51:49.278Z,96.9
2018-06-19T04:52:50.895Z,96.2
2018-06-19T04:53:52.512Z,96.4
2018-06-19T04:54:54.132Z,96.2
2018-06-19T04:55:55.755Z,96.6
2018-06-19T04:56:57.404Z,96.5
2018-06-19T04:57:58.998Z,96.3
2018-06-19T04:59:00.616Z,96.2
2018-06-19T05:00:02.238Z,96.6
2018-06-19T05:01:03.853Z,96.9
2018-06-19T05:02:05.492Z,96.6
2018-06-19T05:03:07.106Z,96.2
2018-06-19T05:04:08.724Z,96.9
2018-06-19T05:05:10.348Z,96.7
2018-06-19T05:06:11.963Z,96.5
2018-06-19T05:07:13.590Z,96.9
2018-06-19T05:08:15.206Z,96.5
2018-06-19T05:09:16.825Z,96.2
2018-06-19T05:10:18.451Z,96.2
2018-06-19T05:11:20.076Z,95.4
2018-06-19T05:12:21.688Z,95.2
2018-06-19T05:13:23.310Z,95.1
2018-06-19T05:14:24.925Z,94.4
2018-06-19T05:15:26.547Z,94.4
2018-06-19T05:16:28.173Z,94.7
2018-06-19T05:17:29.790Z,94.6
2018-06-19T05:18:31.415Z,94.4
2018-06-19T05:19:33.035Z,94.4
2018-06-19T05:20:34.661Z,94.2
2018-06-19T05:21:36.277Z,94.4
2018-06-19T05:22:37.898Z,94.4
2018-06-19T05:23:39.520Z,94.2
2018-06-19T05:24:41.143Z,95.0
2018-06-19T05:25:42.761Z,94.1
2018-06-19T05:26:44.388Z,93.6
2018-06-19T05:27:46.001Z,93.9
2018-06-19T05:28:47.626Z,94.5
2018-06-19T05:29:49.245Z,94.2
2018-06-19T05:30:50.867Z,93.9
2018-06-19T05:31:52.486Z,94.1
2018-06-19T05:32:54.105Z,94.2
2018-06-19T05:33:55.727Z,93.9
2018-06-19T05:34:57.371Z,93.6
2018-06-19T05:35:58.972Z,93.8
2018-06-19T05:37:00.589Z,93.6
2018-06-19T05:38:02.235Z,93.4
2018-06-19T05:39:03.859Z,93.6
2018-06-19T05:40:05.484Z,94.0
2018-06-19T05:41:07.101Z,94.0
2018-06-19T05:42:08.720Z,93.6
2018-06-19T05:43:10.346Z,93.9
2018-06-19T05:44:11.970Z,93.7
2018-06-19T05:45:13.586Z,93.8
2018-06-19T05:46:15.281Z,93.6
2018-06-19T05:47:16.828Z,93.8
2018-06-19T05:48:18.454Z,93.4
2018-06-19T05:49:20.071Z,93.2
2018-06-19T05:50:21.697Z,93.5
2018-06-19T05:51:23.312Z,93.4
2018-06-19T05:52:24.943Z,93.1
2018-06-19T05:53:27.254Z,93.4
2018-06-19T05:54:28.878Z,93.3
2018-06-19T05:55:30.498Z,93.4
2018-06-19T05:56:32.114Z,93.4
2018-06-19T05:57:33.736Z,93.4
2018-06-19T05:58:35.359Z,93.7
2018-06-19T05:59:36.976Z,93.8
2018-06-19T06:00:38.602Z,93.4
2018-06-19T06:01:40.223Z,93.7
2018-06-19T06:02:41.841Z,94.1
2018-06-19T06:03:43.463Z,93.2
2018-06-19T06:04:45.080Z,94.0
2018-06-19T06:05:46.772Z,94.1
2018-06-19T06:06:48.321Z,94.1
2018-06-19T06:07:49.940Z,93.7
2018-06-19T06:08:51.560Z,93.5
2018-06-19T06:09:53.179Z,93.5
2018-06-19T06:10:54.797Z,94.2
2018-06-19T06:11:56.418Z,93.6
2018-06-19T06:12:58.039Z,94.2
2018-06-19T06:13:59.661Z,93.9
2018-06-19T06:15:01.280Z,93.8
2018-06-19T06:16:02.904Z,93.8
2018-06-19T06:17:04.528Z,94.5
2018-06-19T06:18:06.153Z,94.5
2018-06-19T06:19:07.772Z,94.4
2018-06-19T06:20:09.388Z,94.3
2018-06-19T06:21:11.004Z,94.8
2018-06-19T06:22:12.728Z,94.1
2018-06-19T06:23:14.251Z,94.4
2018-06-19T06:24:15.869Z,94.5
2018-06-19T06:25:17.532Z,94.5
2018-06-19T06:26:19.150Z,94.4
2018-06-19T06:27:20.769Z,94.5
2018-06-19T06:28:22.388Z,95.1
2018-06-19T06:29:24.054Z,95.1
2018-06-19T06:30:25.668Z,95.7
2018-06-19T06:31:27.330Z,94.9
2018-06-19T06:32:28.954Z,95.6
2018-06-19T06:33:30.570Z,94.9
2018-06-19T06:34:32.204Z,95.1
2018-06-19T06:35:33.831Z,95.2
2018-06-19T06:36:35.473Z,94.9
2018-06-19T06:37:37.092Z,95.1
2018-06-19T06:38:38.710Z,94.6
2018-06-19T06:39:40.327Z,95.2
2018-06-19T06:40:41.954Z,95.8
2018-06-19T06:41:43.573Z,95.5
2018-06-19T06:42:45.197Z,96.1
2018-06-19T06:43:46.835Z,95.9
2018-06-19T06:44:48.509Z,96.3
2018-06-19T06:45:50.077Z,96.1
2018-06-19T06:46:51.700Z,95.9
2018-06-19T06:47:53.319Z,96.7
2018-06-19T06:48:54.944Z,96.0
2018-06-19T06:49:56.565Z,96.1
2018-06-19T06:50:58.179Z,95.6
2018-06-19T06:51:59.817Z,95.7
2018-06-19T06:53:01.436Z,95.9
2018-06-19T06:54:03.067Z,96.1
2018-06-19T06:55:04.720Z,96.0
2018-06-19T06:56:06.352Z,96.0
2018-06-19T06:57:07.966Z,96.3
2018-06-19T06:58:09.587Z,96.0
2018-06-19T06:59:11.226Z,95.8
2018-06-19T07:00:12.849Z,96.1
2018-06-19T07:01:14.531Z,96.3
2018-06-19T07:02:17.066Z,96.0
2018-06-19T07:03:18.696Z,95.9
2018-06-19T07:04:20.326Z,96.0
2018-06-19T07:05:21.944Z,95.6
2018-06-19T07:06:23.598Z,95.7
2018-06-19T07:07:25.232Z,95.4
2018-06-19T07:08:26.845Z,95.7
2018-06-19T07:09:28.498Z,95.8
2018-06-19T07:10:30.123Z,95.6
2018-06-19T07:11:31.748Z,95.3
2018-06-19T07:12:33.412Z,95.8
2018-06-19T07:13:35.102Z,96.4
2018-06-19T07:14:36.666Z,96.1
2018-06-19T07:15:38.317Z,96.0
2018-06-19T07:16:39.926Z,96.0
2018-06-19T07:17:41.548Z,96.2
2018-06-19T07:18:43.173Z,96.1
2018-06-19T07:19:44.793Z,96.4
2018-06-19T07:20:46.411Z,95.7
2018-06-19T07:21:48.037Z,96.7
2018-06-19T07:22:49.657Z,95.5
2018-06-19T07:23:51.306Z,95.1
2018-06-19T07:24:52.927Z,95.7
2018-06-19T07:25:54.623Z,96.0
2018-06-19T07:26:56.172Z,95.4
2018-06-19T07:27:57.792Z,96.4
2018-06-19T07:28:59.418Z,96.4
2018-06-19T07:30:01.036Z,96.4
2018-06-19T07:31:02.655Z,95.7
2018-06-19T07:32:04.307Z,95.7
2018-06-19T07:33:05.900Z,96.7
2018-06-19T07:34:07.524Z,96.6
2018-06-19T07:35:09.144Z,96.1
2018-06-19T07:36:10.775Z,96.1
2018-06-19T07:37:12.396Z,96.6
2018-06-19T07:38:14.069Z,96.9
2018-06-19T07:39:15.632Z,97.4
2018-06-19T07:40:17.261Z,97.3
2018-06-19T07:41:18.882Z,97.5
2018-06-19T07:42:20.506Z,97.9
2018-06-19T07:43:22.128Z,97.6
2018-06-19T07:44:23.751Z,97.2
2018-06-19T07:45:25.366Z,97.8
2018-06-19T07:46:26.990Z,97.5
2018-06-19T07:47:28.612Z,97.8
2018-06-19T07:48:30.235Z,97.8
2018-06-19T07:49:31.905Z,97.7
2018-06-19T07:50:33.478Z,97.1
2018-06-19T07:51:35.102Z,96.8
2018-06-19T07:52:36.715Z,96.8
2018-06-19T07:53:38.348Z,96.2
2018-06-19T07:54:39.981Z,96.6
2018-06-19T07:55:41.668Z,96.2
2018-06-19T07:56:43.244Z,96.2
2018-06-19T07:57:44.882Z,96.2
2018-06-19T07:58:46.499Z,96.4
2018-06-19T07:59:48.117Z,96.0
2018-06-19T08:00:49.754Z,96.0
2018-06-19T08:01:51.372Z,96.2
2018-06-19T08:02:53.004Z,96.4
2018-06-19T08:03:54.624Z,96.2
2018-06-19T08:04:56.244Z,96.2
2018-06-19T08:05:57.870Z,95.6
2018-06-19T08:06:59.492Z,95.4
2018-06-19T08:08:01.113Z,96.3
2018-06-19T08:09:02.734Z,96.1
2018-06-19T08:10:04.349Z,96.2
2018-06-19T08:11:05.975Z,95.3
2018-06-19T08:12:07.591Z,95.4
2018-06-19T08:13:09.218Z,95.4
2018-06-19T08:14:10.842Z,95.6
2018-06-19T08:15:12.461Z,95.3
2018-06-19T08:16:14.086Z,95.2
2018-06-19T08:17:15.709Z,95.3
2018-06-19T08:18:17.335Z,95.3
2018-06-19T08:19:18.957Z,95.2
2018-06-19T08:20:20.579Z,94.9
2018-06-19T08:21:22.200Z,95.0
2018-06-19T08:22:23.822Z,94.6
2018-06-19T08:23:25.442Z,94.2
2018-06-19T08:24:27.060Z,94.3
2018-06-19T08:25:28.690Z,94.4
2018-06-19T08:26:30.315Z,94.5
2018-06-19T08:27:31.930Z,94.3
2018-06-19T08:28:33.565Z,94.2
2018-06-19T08:29:35.173Z,94.5
2018-06-19T08:30:36.794Z,94.4
2018-06-19T08:31:38.417Z,95.1
2018-06-19T08:32:40.036Z,95.5
2018-06-19T08:33:41.664Z,94.4
2018-06-19T08:34:43.279Z,94.4
2018-06-19T08:35:44.904Z,95.2
2018-06-19T08:36:46.582Z,95.2
2018-06-19T08:37:48.147Z,94.9
2018-06-19T08:38:49.777Z,95.5
2018-06-19T08:39:51.409Z,95.4
2018-06-19T08:40:53.029Z,96.4
2018-06-19T08:41:54.697Z,96.3
2018-06-19T08:42:56.388Z,96.2
2018-06-19T08:43:58.008Z,96.4
2018-06-19T08:44:59.629Z,97.4
2018-06-19T08:46:01.255Z,97.6
2018-06-19T08:47:02.876Z,97.5
2018-06-19T08:48:04.514Z,97.8
2018-06-19T08:49:06.121Z,98.1
2018-06-19T08:50:07.745Z,98.7
2018-06-19T08:51:09.370Z,98.9
2018-06-19T08:52:10.988Z,98.4
2018-06-19T08:53:12.613Z,99.6
2018-06-19T08:54:14.253Z,99.5
2018-06-19T08:55:15.896Z,99.1
2018-06-19T08:56:17.481Z,100.0
2018-06-19T08:57:19.096Z,99.7
2018-06-19T08:58:20.722Z,100.0
2018-06-19T08:59:22.340Z,100.0
2018-06-19T09:00:24.085Z,100.0
2018-06-19T09:01:25.595Z,99.9
2018-06-19T09:02:27.217Z,100.0
2018-06-19T09:03:28.843Z,100.0
2018-06-19T09:04:30.460Z,100.0
2018-06-19T09:05:32.080Z,100.0
2018-06-19T09:06:33.703Z,100.0
2018-06-19T09:07:35.328Z,100.0
2018-06-19T09:08:36.950Z,100.0
2018-06-19T09:09:38.579Z,100.0
2018-06-19T09:10:40.194Z,100.0
2018-06-19T09:11:41.816Z,100.0
2018-06-19T09:12:43.437Z,100.0
2018-06-19T09:13:45.068Z,100.0
2018-06-19T09:14:46.686Z,100.0
2018-06-19T09:15:48.309Z,100.0
2018-06-19T09:16:49.939Z,100.0
2018-06-19T09:17:51.546Z,100.0
2018-06-19T09:18:53.176Z,100.0
2018-06-19T09:19:54.797Z,100.0
2018-06-19T09:20:56.417Z,100.0
2018-06-19T09:21:58.041Z,100.0
2018-06-19T09:22:59.664Z,99.7
2018-06-19T09:24:01.290Z,100.0
2018-06-19T09:25:02.914Z,100.0
2018-06-19T09:26:04.654Z,100.0
2018-06-19T09:27:06.161Z,100.0
2018-06-19T09:28:07.787Z,100.0
2018-06-19T09:29:09.419Z,100.0
2018-06-19T09:30:11.043Z,100.0
2018-06-19T09:31:12.675Z,100.0
2018-06-19T09:32:14.295Z,100.0
2018-06-19T09:33:15.914Z,100.0
2018-06-19T09:34:17.540Z,100.0
2018-06-19T09:35:19.163Z,100.0
2018-06-19T09:36:20.784Z,100.0
2018-06-19T09:37:22.412Z,100.0
2018-06-19T09:38:24.034Z,100.0
2018-06-19T09:39:25.661Z,100.0
2018-06-19T09:40:27.285Z,100.0
2018-06-19T09:41:28.906Z,100.0
2018-06-19T09:42:30.532Z,100.0
2018-06-19T09:43:32.154Z,100.0
2018-06-19T09:44:33.781Z,100.0
2018-06-19T09:45:35.410Z,99.7
2018-06-19T09:46:37.032Z,99.8
2018-06-19T09:47:38.657Z,100.0
2018-06-19T09:48:40.273Z,100.0
2018-06-19T09:49:41.904Z,99.9
2018-06-19T09:50:43.525Z,99.8
2018-06-19T09:51:45.152Z,100.0
2018-06-19T09:52:46.777Z,100.0
2018-06-19T09:53:48.407Z,99.3
2018-06-19T09:54:50.028Z,99.6
2018-06-19T09:55:51.645Z,99.6
2018-06-19T09:56:53.269Z,98.6
2018-06-19T09:57:54.893Z,99.6
2018-06-19T09:58:56.572Z,100.0
2018-06-19T09:59:58.146Z,99.0
2018-06-19T10:00:59.774Z,98.7
2018-06-19T10:02:01.392Z,98.6
2018-06-19T10:03:03.020Z,98.7
2018-06-19T10:04:04.643Z,98.9
2018-06-19T10:05:06.272Z,99.4
2018-06-19T10:06:07.903Z,99.8
2018-06-19T10:07:09.523Z,98.5
2018-06-19T10:08:11.149Z,97.9
2018-06-19T10:09:12.777Z,99.2
2018-06-19T10:10:14.396Z,98.1
2018-06-19T10:11:16.023Z,97.7
2018-06-19T10:12:17.743Z,97.7
2018-06-19T10:13:19.271Z,98.7
2018-06-19T10:14:20.902Z,98.0
2018-06-19T10:15:22.518Z,97.6
2018-06-19T10:16:24.147Z,98.0
2018-06-19T10:17:25.770Z,97.5
2018-06-19T10:18:27.390Z,96.3
2018-06-19T10:19:29.063Z,96.6
2018-06-19T10:20:30.643Z,96.4
2018-06-19T10:21:32.270Z,96.5
2018-06-19T10:22:33.896Z,96.7
2018-06-19T10:23:35.523Z,95.4
2018-06-19T10:24:37.148Z,95.1
2018-06-19T10:25:38.775Z,95.8
2018-06-19T10:26:40.398Z,94.8
2018-06-19T10:27:42.021Z,94.3
2018-06-19T10:28:43.651Z,94.9
2018-06-19T10:29:45.269Z,94.5
2018-06-19T10:30:46.895Z,94.2
2018-06-19T10:31:48.528Z,93.8
2018-06-19T10:32:50.150Z,93.5
2018-06-19T10:33:51.779Z,94.1
2018-06-19T10:34:53.403Z,94.0
2018-06-19T10:35:55.026Z,93.5
2018-06-19T10:36:56.653Z,93.9
2018-06-19T10:37:58.272Z,94.4
2018-06-19T10:38:59.893Z,94.5
2018-06-19T10:40:01.515Z,94.3
2018-06-19T10:41:03.137Z,94.2
2018-06-19T10:42:04.763Z,94.0
2018-06-19T10:43:06.393Z,94.9
2018-06-19T10:44:08.012Z,94.6
2018-06-19T10:45:09.638Z,93.9
2018-06-19T10:46:11.268Z,94.3
2018-06-19T10:47:12.889Z,94.7
2018-06-19T10:48:14.516Z,94.4
2018-06-19T10:49:16.137Z,94.1
2018-06-19T10:50:17.760Z,94.6
2018-06-19T10:51:19.387Z,94.6
2018-06-19T10:52:21.007Z,94.2
2018-06-19T10:53:22.629Z,93.8
2018-06-19T10:54:24.255Z,93.1
2018-06-19T10:55:25.882Z,93.6
2018-06-19T10:56:27.516Z,93.5
2018-06-19T10:57:29.138Z,94.2
2018-06-19T10:58:30.764Z,94.3
2018-06-19T10:59:32.385Z,94.2
2018-06-19T11:00:34.012Z,94.3
2018-06-19T11:01:35.633Z,93.6
2018-06-19T11:02:37.255Z,93.9
2018-06-19T11:03:38.884Z,94.2
2018-06-19T11:04:40.510Z,93.6
2018-06-19T11:05:42.140Z,93.9
2018-06-19T11:06:43.768Z,93.3
2018-06-19T11:07:45.417Z,93.6
2018-06-19T11:08:47.011Z,93.6
2018-06-19T11:09:48.640Z,94.0
2018-06-19T11:10:50.262Z,93.5
2018-06-19T11:11:51.886Z,93.7
2018-06-19T11:12:53.507Z,93.2
2018-06-19T11:13:55.133Z,93.7
2018-06-19T11:14:56.756Z,93.2
2018-06-19T11:15:58.387Z,93.0
2018-06-19T11:17:00.021Z,91.8
2018-06-19T11:18:01.642Z,91.9
2018-06-19T11:19:03.271Z,92.5
2018-06-19T11:20:04.929Z,92.6
2018-06-19T11:21:06.520Z,92.4
2018-06-19T11:22:08.154Z,92.2
2018-06-19T11:23:09.781Z,90.9
2018-06-19T11:24:11.404Z,90.3
2018-06-19T11:25:13.036Z,89.8
2018-06-19T11:26:14.664Z,89.7
2018-06-19T11:27:16.288Z,89.9
2018-06-19T11:28:17.912Z,89.5
2018-06-19T11:29:19.539Z,88.0
2018-06-19T11:30:21.167Z,88.0
2018-06-19T11:31:22.792Z,88.7
2018-06-19T11:32:24.423Z,87.9
2018-06-19T11:33:26.045Z,87.2
2018-06-19T11:34:27.673Z,87.1
2018-06-19T11:35:29.298Z,87.2
2018-06-19T11:36:30.929Z,86.9
2018-06-19T11:37:32.560Z,87.1
2018-06-19T11:38:34.185Z,87.5
2018-06-19T11:39:35.817Z,87.2
2018-06-19T11:40:37.443Z,87.4
2018-06-19T11:41:39.066Z,87.2
2018-06-19T11:42:40.696Z,86.2
2018-06-19T11:43:42.321Z,86.3
2018-06-19T11:44:43.997Z,85.4
2018-06-19T11:45:45.576Z,85.5
2018-06-19T11:46:47.206Z,86.2
2018-06-19T11:47:48.832Z,85.2
2018-06-19T11:48:50.462Z,85.4
2018-06-19T11:49:52.091Z,84.8
2018-06-19T11:50:53.713Z,83.9
2018-06-19T11:51:55.338Z,84.0
2018-06-19T11:52:56.972Z,84.6
2018-06-19T11:53:58.594Z,84.5
2018-06-19T11:55:00.226Z,84.1
2018-06-19T11:56:01.855Z,83.2
2018-06-19T11:57:03.480Z,83.0
2018-06-19T11:58:05.617Z,83.3
2018-06-19T11:59:07.247Z,83.5
2018-06-19T12:00:08.880Z,82.4
2018-06-19T12:01:10.520Z,82.4
2018-06-19T12:02:12.138Z,83.2
2018-06-19T12:03:13.758Z,81.6
2018-06-19T12:04:15.389Z,80.7
2018-06-19T12:05:17.014Z,81.8
2018-06-19T12:06:18.639Z,81.5
2018-06-19T12:07:20.279Z,82.0
2018-06-19T12:08:21.910Z,82.0
2018-06-19T12:09:23.539Z,82.4
2018-06-19T12:10:25.169Z,83.1
2018-06-19T12:11:26.795Z,82.6
2018-06-19T12:12:28.419Z,81.5
2018-06-19T12:13:30.051Z,81.5
2018-06-19T12:14:31.683Z,81.2
2018-06-19T12:15:33.333Z,81.2
2018-06-19T12:16:34.963Z,81.6
2018-06-19T12:17:36.591Z,81.4
2018-06-19T12:18:38.209Z,82.3
2018-06-19T12:19:39.842Z,82.0
2018-06-19T12:20:41.470Z,81.9
2018-06-19T12:21:43.097Z,83.2
2018-06-19T12:22:44.729Z,82.6
2018-06-19T12:23:46.362Z,81.7
2018-06-19T12:24:47.984Z,82.1
2018-06-19T12:25:49.611Z,81.4
2018-06-19T12:26:51.234Z,82.6
2018-06-19T12:27:52.864Z,83.2
2018-06-19T12:28:54.487Z,82.4
2018-06-19T12:29:56.121Z,82.8
2018-06-19T12:30:57.746Z,82.5
2018-06-19T12:31:59.381Z,82.5
2018-06-19T12:33:01.001Z,82.6
2018-06-19T12:34:02.631Z,82.9
2018-06-19T12:35:04.260Z,84.3
2018-06-19T12:36:05.883Z,83.8
2018-06-19T12:37:07.516Z,84.2
2018-06-19T12:38:09.141Z,83.9
2018-06-19T12:39:10.763Z,83.1
2018-06-19T12:40:12.393Z,83.2
2018-06-19T12:41:14.019Z,82.8
2018-06-19T12:42:15.651Z,83.0
2018-06-19T12:43:17.281Z,83.1
2018-06-19T12:44:18.906Z,83.2
2018-06-19T12:45:20.540Z,83.2
2018-06-19T12:46:22.162Z,82.5
2018-06-19T12:47:23.787Z,83.4
2018-06-19T12:48:25.420Z,81.6
2018-06-19T12:49:27.051Z,81.9
2018-06-19T12:50:28.674Z,82.5
2018-06-19T12:51:30.303Z,82.6
2018-06-19T12:52:31.927Z,81.3
2018-06-19T12:53:33.549Z,81.7
2018-06-19T12:54:35.182Z,82.0
2018-06-19T12:55:36.811Z,82.5
2018-06-19T12:56:38.439Z,81.8
2018-06-19T12:57:40.064Z,81.5
2018-06-19T12:58:41.698Z,81.4
2018-06-19T12:59:43.324Z,81.9
2018-06-19T13:00:44.952Z,82.6
2018-06-19T13:01:46.586Z,80.8
2018-06-19T13:02:48.210Z,81.4
2018-06-19T13:03:49.841Z,81.2
2018-06-19T13:04:51.462Z,81.8
2018-06-19T13:05:53.089Z,82.0
2018-06-19T13:06:54.717Z,82.8
2018-06-19T13:07:56.347Z,82.9
2018-06-19T13:08:57.972Z,82.4
2018-06-19T13:09:59.597Z,82.7
2018-06-19T13:11:01.256Z,81.7
2018-06-19T13:12:02.848Z,80.7
2018-06-19T13:13:04.486Z,80.7
2018-06-19T13:14:06.114Z,81.7
2018-06-19T13:15:07.736Z,81.3
2018-06-19T13:16:09.370Z,81.2
2018-06-19T13:17:10.995Z,80.8
2018-06-19T13:18:12.623Z,80.0
2018-06-19T13:19:14.255Z,80.7
2018-06-19T13:20:15.874Z,80.7
2018-06-19T13:21:17.503Z,80.9
2018-06-19T13:22:19.139Z,80.8
2018-06-19T13:23:20.768Z,79.9
2018-06-19T13:24:22.395Z,80.0
2018-06-19T13:25:24.027Z,79.5
2018-06-19T13:26:25.656Z,78.3
2018-06-19T13:27:27.280Z,78.4
2018-06-19T13:28:28.914Z,78.5
2018-06-19T13:29:30.537Z,78.8
2018-06-19T13:30:32.166Z,78.3
2018-06-19T13:31:33.790Z,78.8
2018-06-19T13:32:35.417Z,79.1
2018-06-19T13:33:37.047Z,78.5
2018-06-19T13:34:38.672Z,76.2
2018-06-19T13:35:40.314Z,76.8
2018-06-19T13:36:41.939Z,76.2
2018-06-19T13:37:43.566Z,76.6